Time;durP1;ratioP1;P1;durP2;ratioP2;P2;SDS_P1;SDS_P2;PMS_P1;PMS_P2;Temp;Humidity;BMP_temperature;BMP_pressure;BME280_temperature;BME280_humidity;BME280_pressure;Samples;Min_cycle;Max_cycle;Signal;HPM_P1;HPM_P2
2023/09/03 00:02:13;;;;;;;;;;;;;;;;;;5094132;28;19919;-72
2023/09/03 00:04:39;;;;;;;;;;;;;;;;;;5096335;28;19919;-71
2023/09/03 00:07:05;;;;;;;;;;;;;;;;;;5115561;28;19926;-72
2023/09/03 00:09:31;;;;;;;;;;;;;;;;;;5114649;28;19926;-72
2023/09/03 00:11:57;;;;;;;;;;;;;;;;;;5115415;28;20356;-71
2023/09/03 00:14:23;;;;;;;;;;;;;;;;;;5114936;28;19920;-71
2023/09/03 00:16:48;;;;;;;;;;;;;;;;;;5115521;28;19969;-72
2023/09/03 00:19:14;;;;;;;;;;;;;;;;;;5114352;28;19927;-71
2023/09/03 00:21:40;;;;;;;;;;;;;;;;;;5116262;28;20012;-71
2023/09/03 00:24:06;;;;;;;;;;;;;;;;;;5115117;28;19920;-72
2023/09/03 00:26:32;;;;;;;;;;;;;;;;;;5114194;28;19930;-72
2023/09/03 00:28:58;;;;;;;;;;;;;;;;;;5114081;28;19924;-71
2023/09/03 00:31:26;;;;;;;;;;;;;;;;;;5114642;28;19927;-72
2023/09/03 00:33:52;;;;;;;;;;;;;;;;;;5114611;28;19971;-71
2023/09/03 00:36:18;;;;;;;;;;;;;;;;;;5114502;28;19985;-72
2023/09/03 00:38:44;;;;;;;;;;;;;;;;;;5114879;28;19927;-71
2023/09/03 00:41:13;;;;;;;;;;;;;;;;;;5114884;28;19920;-72
2023/09/03 00:43:38;;;;;;;;;;;;;;;;;;5115032;28;19969;-71
2023/09/03 00:46:04;;;;;;;;;;;;;;;;;;5115858;28;19967;-71
2023/09/03 00:48:30;;;;;;;;;;;;;;;;;;5113726;28;20279;-71
2023/09/03 00:50:56;;;;;;;;;;;;;;;;;;5114858;28;19924;-72
2023/09/03 00:53:23;;;;;;;;;;;;;;;;;;5113986;28;19920;-71
2023/09/03 00:55:49;;;;;;;;;;;;;;;;;;5114823;28;20010;-71
2023/09/03 00:58:15;;;;;;;;;;;;;;;;;;5112963;28;19994;-73
2023/09/03 01:00:41;;;;;;;;;;;;;;;;;;5114680;28;19920;-72
2023/09/03 01:03:07;;;;;;;;;;;;;;;;;;5113827;28;19919;-71
2023/09/03 01:05:32;;;;;;;;;;;;;;;;;;5114015;28;19931;-72
2023/09/03 01:07:58;;;;;;;;;;;;;;;;;;5113824;28;19920;-72
2023/09/03 01:10:24;;;;;;;;;;;;;;;;;;5113589;28;19919;-71
2023/09/03 01:12:50;;;;;;;;;;;;;;;;;;5113753;28;19920;-72
2023/09/03 01:15:16;;;;;;;;;;;;;;;;;;5113424;28;20369;-72
2023/09/03 01:17:46;;;;;;;;;;;;;;;;;;5114246;28;20364;-72
2023/09/03 01:20:12;;;;;;;;;;;;;;;;;;5113464;28;19920;-71
2023/09/03 01:22:37;;;;;;;;;;;;;;;;;;5113540;28;19963;-72
2023/09/03 01:25:05;;;;;;;;;;;;;;;;;;5098164;27;19967;-71
2023/09/03 01:27:31;;;;;;;;;;;;;;;;;;5116399;27;20324;-71
2023/09/03 01:29:56;;;;;;;;;;;;;;;;;;5116569;27;19923;-72
2023/09/03 01:32:22;;;;;;;;;;;;;;;;;;5116962;27;20379;-72
2023/09/03 01:34:48;;;;;;;;;;;;;;;;;;5116837;27;19969;-71
2023/09/03 01:37:17;;;;;;;;;;;;;;;;;;5099852;27;19966;-71
2023/09/03 01:39:43;;;;;;;;;;;;;;;;;;5117230;27;19919;-72
2023/09/03 01:42:09;;;;;;;;;;;;;;;;;;5117070;27;20378;-71
2023/09/03 01:44:35;;;;;;;;;;;;;;;;;;5115714;27;20376;-71
2023/09/03 01:47:01;;;;;;;;;;;;;;;;;;5116870;27;20383;-71
2023/09/03 01:49:27;;;;;;;;;;;;;;;;;;5115798;27;20026;-71
2023/09/03 01:51:53;;;;;;;;;;;;;;;;;;5117024;27;19963;-71
2023/09/03 01:54:19;;;;;;;;;;;;;;;;;;5116470;27;19973;-73
2023/09/03 01:56:45;;;;;;;;;;;;;;;;;;5116829;27;19919;-72
2023/09/03 01:59:11;;;;;;;;;;;;;;;;;;5115846;27;19919;-72
2023/09/03 02:01:37;;;;;;;;;;;;;;;;;;5115911;27;19969;-71
2023/09/03 02:04:03;;;;;;;;;;;;;;;;;;5116157;27;19919;-72
2023/09/03 02:06:29;;;;;;;;;;;;;;;;;;5116206;27;20338;-71
2023/09/03 02:08:54;;;;;;;;;;;;;;;;;;5116351;27;19942;-72
2023/09/03 02:11:20;;;;;;;;;;;;;;;;;;5116237;27;20009;-74
2023/09/03 02:13:46;;;;;;;;;;;;;;;;;;5098158;27;19919;-71
2023/09/03 02:16:12;;;;;;;;;;;;;;;;;;5116582;27;19919;-72
2023/09/03 02:18:38;;;;;;;;;;;;;;;;;;5115407;27;19919;-71
2023/09/03 02:21:04;;;;;;;;;;;;;;;;;;5099451;27;19972;-72
2023/09/03 02:23:30;;;;;;;;;;;;;;;;;;5115590;27;19920;-72
2023/09/03 02:25:56;;;;;;;;;;;;;;;;;;5116053;27;19968;-72
2023/09/03 02:28:22;;;;;;;;;;;;;;;;;;5114510;27;19966;-74
2023/09/03 02:30:48;;;;;;;;;;;;;;;;;;5116341;27;19919;-71
2023/09/03 02:33:14;;;;;;;;;;;;;;;;;;5115665;27;19944;-72
2023/09/03 02:35:40;;;;;;;;;;;;;;;;;;5098701;27;19919;-72
2023/09/03 02:38:06;;;;;;;;;;;;;;;;;;5133040;27;19930;-72
2023/09/03 02:40:32;;;;;;;;;;;;;;;;;;5115279;27;19920;-71
2023/09/03 02:42:58;;;;;;;;;;;;;;;;;;5115140;27;19926;-72
2023/09/03 02:45:23;;;;;;;;;;;;;;;;;;5115505;27;19919;-74
2023/09/03 02:47:49;;;;;;;;;;;;;;;;;;5115942;27;19919;-71
2023/09/03 02:50:15;;;;;;;;;;;;;;;;;;5098135;27;19923;-72
2023/09/03 02:52:41;;;;;;;;;;;;;;;;;;5115253;27;19925;-71
2023/09/03 02:55:07;;;;;;;;;;;;;;;;;;5098746;27;19920;-72
2023/09/03 02:57:33;;;;;;;;;;;;;;;;;;5114701;27;19981;-71
2023/09/03 02:59:59;;;;;;;;;;;;;;;;;;5115192;27;19919;-72
2023/09/03 03:02:25;;;;;;;;;;;;;;;;;;5115501;27;19923;-74
2023/09/03 03:04:51;;;;;;;;;;;;;;;;;;5115125;27;19924;-72
2023/09/03 03:07:17;;;;;;;;;;;;;;;;;;5132288;27;20386;-72
2023/09/03 03:09:43;;;;;;;;;;;;;;;;;;5097837;27;20360;-72
2023/09/03 03:12:09;;;;;;;;;;;;;;;;;;5098114;27;19919;-73
2023/09/03 03:14:35;;;;;;;;;;;;;;;;;;5097103;27;20014;-72
2023/09/03 03:17:01;;;;;;;;;;;;;;;;;;5115572;27;20371;-71
2023/09/03 03:19:27;;;;;;;;;;;;;;;;;;5097694;28;20253;-74
2023/09/03 03:21:53;;;;;;;;;;;;;;;;;;5115429;28;19995;-72
2023/09/03 03:24:20;;;;;;;;;;;;;;;;;;5115014;27;19926;-72
2023/09/03 03:26:46;;;;;;;;;;;;;;;;;;5114330;28;19934;-71
2023/09/03 03:29:12;;;;;;;;;;;;;;;;;;5114038;28;19919;-72
2023/09/03 03:31:38;;;;;;;;;;;;;;;;;;5114925;28;19926;-71
2023/09/03 03:34:04;;;;;;;;;;;;;;;;;;5132893;28;20261;-71
2023/09/03 03:36:30;;;;;;;;;;;;;;;;;;5114757;28;19981;-72
2023/09/03 03:38:56;;;;;;;;;;;;;;;;;;5115925;27;19923;-72
2023/09/03 03:41:22;;;;;;;;;;;;;;;;;;5119467;27;19920;-72
2023/09/03 03:43:48;;;;;;;;;;;;;;;;;;5117895;27;20521;-72
2023/09/03 03:46:14;;;;;;;;;;;;;;;;;;5119500;27;20021;-71
2023/09/03 03:48:40;;;;;;;;;;;;;;;;;;5118250;27;19924;-71
2023/09/03 03:51:06;;;;;;;;;;;;;;;;;;5119410;27;20017;-71
2023/09/03 03:53:32;;;;;;;;;;;;;;;;;;5118632;27;19926;-73
2023/09/03 03:55:58;;;;;;;;;;;;;;;;;;5119378;27;19919;-72
2023/09/03 03:58:24;;;;;;;;;;;;;;;;;;5117903;27;20048;-71
2023/09/03 04:00:50;;;;;;;;;;;;;;;;;;5118793;27;20639;-71
2023/09/03 04:03:16;;;;;;;;;;;;;;;;;;5101578;27;19962;-72
2023/09/03 04:05:42;;;;;;;;;;;;;;;;;;5118516;27;19930;-71
2023/09/03 04:08:08;;;;;;;;;;;;;;;;;;5101570;27;19919;-72
2023/09/03 04:10:34;;;;;;;;;;;;;;;;;;5118138;27;19926;-72
2023/09/03 04:13:00;;;;;;;;;;;;;;;;;;5100927;27;19919;-72
2023/09/03 04:15:26;;;;;;;;;;;;;;;;;;5118782;27;20360;-72
2023/09/03 04:17:52;;;;;;;;;;;;;;;;;;5118437;27;19919;-71
2023/09/03 04:20:18;;;;;;;;;;;;;;;;;;5101341;27;19923;-72
2023/09/03 04:22:44;;;;;;;;;;;;;;;;;;5100697;27;19919;-72
2023/09/03 04:25:10;;;;;;;;;;;;;;;;;;5118322;27;19919;-71
2023/09/03 04:27:36;;;;;;;;;;;;;;;;;;5117573;27;19976;-72
2023/09/03 04:30:02;;;;;;;;;;;;;;;;;;5117790;27;20292;-71
2023/09/03 04:32:28;;;;;;;;;;;;;;;;;;5118617;27;20382;-71
2023/09/03 04:34:54;;;;;;;;;;;;;;;;;;5117227;27;19923;-72
2023/09/03 04:37:20;;;;;;;;;;;;;;;;;;5118352;27;19968;-72
2023/09/03 04:39:46;;;;;;;;;;;;;;;;;;5117888;27;19924;-72
2023/09/03 04:42:12;;;;;;;;;;;;;;;;;;5118049;27;20060;-72
2023/09/03 04:44:39;;;;;;;;;;;;;;;;;;5117151;27;19919;-72
2023/09/03 04:47:05;;;;;;;;;;;;;;;;;;5118377;27;19923;-72
2023/09/03 04:49:31;;;;;;;;;;;;;;;;;;5117366;27;20308;-71
2023/09/03 04:51:57;;;;;;;;;;;;;;;;;;5116367;27;20114;-72
2023/09/03 04:54:23;;;;;;;;;;;;;;;;;;5136061;27;19919;-71
2023/09/03 04:56:49;;;;;;;;;;;;;;;;;;5117421;27;20257;-71
2023/09/03 04:59:15;;;;;;;;;;;;;;;;;;5099920;27;19919;-71
2023/09/03 05:01:41;;;;;;;;;;;;;;;;;;5116913;27;20434;-72
2023/09/03 05:04:07;;;;;;;;;;;;;;;;;;5134697;27;20277;-72
2023/09/03 05:06:33;;;;;;;;;;;;;;;;;;5117682;27;19966;-71
2023/09/03 05:08:59;;;;;;;;;;;;;;;;;;5116746;27;20817;-72
2023/09/03 05:11:25;;;;;;;;;;;;;;;;;;5117701;27;19923;-72
2023/09/03 05:13:51;;;;;;;;;;;;;;;;;;5116242;27;20019;-72
2023/09/03 05:16:17;;;;;;;;;;;;;;;;;;5117777;27;19964;-72
2023/09/03 05:18:43;;;;;;;;;;;;;;;;;;5116662;27;19919;-72
2023/09/03 05:21:09;;;;;;;;;;;;;;;;;;5117300;27;19965;-72
2023/09/03 05:23:35;;;;;;;;;;;;;;;;;;5117392;27;19926;-73
2023/09/03 05:26:01;;;;;;;;;;;;;;;;;;5116835;27;19919;-71
2023/09/03 05:28:27;;;;;;;;;;;;;;;;;;5116094;27;19919;-71
2023/09/03 05:30:53;;;;;;;;;;;;;;;;;;5116966;27;20056;-72
2023/09/03 05:33:18;;;;;;;;;;;;;;;;;;5099622;27;19927;-71
2023/09/03 05:35:44;;;;;;;;;;;;;;;;;;5116577;27;19919;-72
2023/09/03 05:38:10;;;;;;;;;;;;;;;;;;5117033;27;19919;-71
2023/09/03 05:40:36;;;;;;;;;;;;;;;;;;5117314;27;19923;-72
2023/09/03 05:43:02;;;;;;;;;;;;;;;;;;5115218;27;19920;-72
2023/09/03 05:45:28;;;;;;;;;;;;;;;;;;5117169;27;19919;-71
2023/09/03 05:47:54;;;;;;;;;;;;;;;;;;5116624;27;19940;-72
2023/09/03 05:50:20;;;;;;;;;;;;;;;;;;5116324;27;20372;-71
2023/09/03 05:52:46;;;;;;;;;;;;;;;;;;5116304;27;20368;-72
2023/09/03 05:55:12;;;;;;;;;;;;;;;;;;5116831;27;19923;-72
2023/09/03 05:57:40;;;;;;;;;;;;;;;;;;5116309;27;19919;-71
2023/09/03 06:00:06;;;;;;;;;;;;;;;;;;5115728;27;19978;-72
2023/09/03 06:02:31;;;;;;;;;;;;;;;;;;5116100;27;19966;-72
2023/09/03 06:04:57;;;;;;;;;;;;;;;;;;5115701;27;19920;-72
2023/09/03 06:07:23;;;;;;;;;;;;;;;;;;5116485;27;19944;-72
2023/09/03 06:09:49;;;;;;;;;;;;;;;;;;5115796;27;20388;-72
2023/09/03 06:12:16;;;;;;;;;;;;;;;;;;5115617;27;19998;-72
2023/09/03 06:14:41;;;;;;;;;;;;;;;;;;5116134;27;19919;-72
2023/09/03 06:17:07;;;;;;;;;;;;;;;;;;5099037;27;19926;-71
2023/09/03 06:19:33;;;;;;;;;;;;;;;;;;5099060;27;20014;-72
2023/09/03 06:21:59;;;;;;;;;;;;;;;;;;5115907;27;19923;-72
2023/09/03 06:24:25;;;;;;;;;;;;;;;;;;5116192;27;20064;-72
2023/09/03 06:26:51;;;;;;;;;;;;;;;;;;5133884;27;19919;-72
2023/09/03 06:29:17;;;;;;;;;;;;;;;;;;5098088;27;19923;-72
2023/09/03 06:31:43;;;;;;;;;;;;;;;;;;5116251;27;20379;-72
2023/09/03 06:34:09;;;;;;;;;;;;;;;;;;5097915;27;20347;-72
2023/09/03 06:36:35;;;;;;;;;;;;;;;;;;5116167;27;19965;-72
2023/09/03 06:39:02;;;;;;;;;;;;;;;;;;5133574;27;19926;-71
2023/09/03 06:41:28;;;;;;;;;;;;;;;;;;5115667;27;19927;-72
2023/09/03 06:43:55;;;;;;;;;;;;;;;;;;5114380;27;19925;-72
2023/09/03 06:46:21;;;;;;;;;;;;;;;;;;5116146;27;19926;-71
2023/09/03 06:48:47;;;;;;;;;;;;;;;;;;5115060;27;20460;-74
2023/09/03 06:51:13;;;;;;;;;;;;;;;;;;5115383;27;19920;-71
2023/09/03 06:53:39;;;;;;;;;;;;;;;;;;5115415;27;19927;-73
2023/09/03 06:56:06;;;;;;;;;;;;;;;;;;5115369;27;19919;-72
2023/09/03 06:58:32;;;;;;;;;;;;;;;;;;5132758;27;19919;-72
2023/09/03 07:00:58;;;;;;;;;;;;;;;;;;5115313;27;19920;-72
2023/09/03 07:03:24;;;;;;;;;;;;;;;;;;5098237;27;20536;-72
2023/09/03 07:05:50;;;;;;;;;;;;;;;;;;5115502;27;20008;-74
2023/09/03 07:08:16;;;;;;;;;;;;;;;;;;5115270;27;19924;-72
2023/09/03 07:10:42;;;;;;;;;;;;;;;;;;5115312;27;20494;-72
2023/09/03 07:13:07;;;;;;;;;;;;;;;;;;5112983;28;19919;-73
2023/09/03 07:15:35;;;;;;;;;;;;;;;;;;5115434;28;19926;-72
2023/09/03 07:18:01;;;;;;;;;;;;;;;;;;5114457;27;19966;-72
2023/09/03 07:20:27;;;;;;;;;;;;;;;;;;5115060;28;19977;-72
2023/09/03 07:22:53;;;;;;;;;;;;;;;;;;5114704;27;19964;-72
2023/09/03 07:25:19;;;;;;;;;;;;;;;;;;5115101;28;19919;-72
2023/09/03 07:27:45;;;;;;;;;;;;;;;;;;5114794;28;20347;-72
2023/09/03 07:30:11;;;;;;;;;;;;;;;;;;5113456;28;20141;-72
2023/09/03 07:32:37;;;;;;;;;;;;;;;;;;5115094;28;19923;-72
2023/09/03 07:35:03;;;;;;;;;;;;;;;;;;5097281;28;19971;-72
2023/09/03 07:37:29;;;;;;;;;;;;;;;;;;5115132;28;20280;-72
2023/09/03 07:39:55;;;;;;;;;;;;;;;;;;5114650;28;20069;-72
2023/09/03 07:42:21;;;;;;;;;;;;;;;;;;5114636;28;19919;-72
2023/09/03 07:44:47;;;;;;;;;;;;;;;;;;5097784;28;20009;-72
2023/09/03 07:47:13;;;;;;;;;;;;;;;;;;5097785;28;19916;-72
2023/09/03 07:49:39;;;;;;;;;;;;;;;;;;5114479;28;19927;-71
2023/09/03 07:52:07;;;;;;;;;;;;;;;;;;5097622;28;19923;-72
2023/09/03 07:54:32;;;;;;;;;;;;;;;;;;5114665;28;20374;-72
2023/09/03 07:56:58;;;;;;;;;;;;;;;;;;5114516;28;19919;-72
2023/09/03 07:59:24;;;;;;;;;;;;;;;;;;5113994;28;20360;-73
2023/09/03 08:01:50;;;;;;;;;;;;;;;;;;5115156;28;20283;-72
2023/09/03 08:04:16;;;;;;;;;;;;;;;;;;5114092;28;20348;-72
2023/09/03 08:06:42;;;;;;;;;;;;;;;;;;5115008;28;19923;-72
2023/09/03 08:09:08;;;;;;;;;;;;;;;;;;5114151;28;19988;-72
2023/09/03 08:11:36;;;;;;;;;;;;;;;;;;5097871;28;20001;-72
2023/09/03 08:14:02;;;;;;;;;;;;;;;;;;5113451;28;19919;-72
2023/09/03 08:16:28;;;;;;;;;;;;;;;;;;5114976;28;19920;-72
2023/09/03 08:18:54;;;;;;;;;;;;;;;;;;5114433;28;19926;-74
2023/09/03 08:21:20;;;;;;;;;;;;;;;;;;5114277;28;20299;-72
2023/09/03 08:23:46;;;;;;;;;;;;;;;;;;5114703;28;19978;-72
2023/09/03 08:26:12;;;;;;;;;;;;;;;;;;5116757;27;19923;-72
2023/09/03 08:28:38;;;;;;;;;;;;;;;;;;5100602;27;19919;-72
2023/09/03 08:31:04;;;;;;;;;;;;;;;;;;5118186;27;20364;-72
2023/09/03 08:33:30;;;;;;;;;;;;;;;;;;5136101;27;20378;-72
2023/09/03 08:35:56;;;;;;;;;;;;;;;;;;5118568;27;19999;-74
2023/09/03 08:38:22;;;;;;;;;;;;;;;;;;5100912;27;19923;-72
2023/09/03 08:40:48;;;;;;;;;;;;;;;;;;5118239;27;19978;-72
2023/09/03 08:43:14;;;;;;;;;;;;;;;;;;5116654;27;19919;-73
2023/09/03 08:45:40;;;;;;;;;;;;;;;;;;5118379;27;19919;-72
2023/09/03 08:48:06;;;;;;;;;;;;;;;;;;5117478;27;19923;-73
2023/09/03 08:50:33;;;;;;;;;;;;;;;;;;5117861;27;19919;-72
2023/09/03 08:52:59;;;;;;;;;;;;;;;;;;5117474;27;19974;-75
2023/09/03 08:55:25;;;;;;;;;;;;;;;;;;5118175;27;19919;-72
2023/09/03 08:57:54;;;;;;;;;;;;;;;;;;5117126;27;19924;-72
2023/09/03 09:00:20;;;;;;;;;;;;;;;;;;5117141;27;19927;-72
2023/09/03 09:02:46;;;;;;;;;;;;;;;;;;5118063;27;19946;-72
2023/09/03 09:05:12;;;;;;;;;;;;;;;;;;5116937;27;20353;-73
2023/09/03 09:07:38;;;;;;;;;;;;;;;;;;5117780;27;20378;-72
2023/09/03 09:10:04;;;;;;;;;;;;;;;;;;5117010;27;20483;-72
2023/09/03 09:12:30;;;;;;;;;;;;;;;;;;5117167;27;20294;-72
2023/09/03 09:14:56;;;;;;;;;;;;;;;;;;5117291;27;19924;-72
2023/09/03 09:17:22;;;;;;;;;;;;;;;;;;5117276;27;19923;-73
2023/09/03 09:19:48;;;;;;;;;;;;;;;;;;5099889;27;19926;-72
2023/09/03 09:22:14;;;;;;;;;;;;;;;;;;5116602;27;20337;-72
2023/09/03 09:24:40;;;;;;;;;;;;;;;;;;5117460;27;19964;-72
2023/09/03 09:27:05;;;;;;;;;;;;;;;;;;5135022;27;20454;-73
2023/09/03 09:29:31;;;;;;;;;;;;;;;;;;5116031;27;20395;-72
2023/09/03 09:31:57;;;;;;;;;;;;;;;;;;5100482;27;19991;-72
2023/09/03 09:34:23;;;;;;;;;;;;;;;;;;5116337;27;19926;-72
2023/09/03 09:36:49;;;;;;;;;;;;;;;;;;5116227;27;19920;-72
2023/09/03 09:39:15;;;;;;;;;;;;;;;;;;5116612;27;19919;-72
2023/09/03 09:41:41;;;;;;;;;;;;;;;;;;5117138;27;19920;-72
2023/09/03 09:44:08;;;;;;;;;;;;;;;;;;5115762;27;20360;-72
2023/09/03 09:46:34;;;;;;;;;;;;;;;;;;5117208;27;20372;-72
2023/09/03 09:49:00;;;;;;;;;;;;;;;;;;5116500;27;19919;-72
2023/09/03 09:51:26;;;;;;;;;;;;;;;;;;5115848;27;20445;-73
2023/09/03 09:53:52;;;;;;;;;;;;;;;;;;5116854;27;20025;-72
2023/09/03 09:56:17;;;;;;;;;;;;;;;;;;5116247;27;19942;-72
2023/09/03 09:58:43;;;;;;;;;;;;;;;;;;5115857;27;19919;-72
2023/09/03 10:01:09;;;;;;;;;;;;;;;;;;5116418;27;19992;-72
2023/09/03 10:03:35;;;;;;;;;;;;;;;;;;5116368;27;19923;-72
2023/09/03 10:06:01;;;;;;;;;;;;;;;;;;5099558;27;19974;-72
2023/09/03 10:08:27;;;;;;;;;;;;;;;;;;5115655;27;19919;-72
2023/09/03 10:10:53;;;;;;;;;;;;;;;;;;5116362;27;20346;-72
2023/09/03 10:13:19;;;;;;;;;;;;;;;;;;5114815;27;20355;-72
2023/09/03 10:15:45;;;;;;;;;;;;;;;;;;5116668;27;19970;-72
2023/09/03 10:18:11;;;;;;;;;;;;;;;;;;5115545;27;19919;-73
2023/09/03 10:20:37;;;;;;;;;;;;;;;;;;5116584;27;19926;-72
2023/09/03 10:23:04;;;;;;;;;;;;;;;;;;5115931;27;19977;-72
2023/09/03 10:25:30;;;;;;;;;;;;;;;;;;5115948;27;19926;-72
2023/09/03 10:27:56;;;;;;;;;;;;;;;;;;5098600;27;19927;-74
2023/09/03 10:30:22;;;;;;;;;;;;;;;;;;5115220;27;19919;-72
2023/09/03 10:32:48;;;;;;;;;;;;;;;;;;5116252;27;19919;-72
2023/09/03 10:35:14;;;;;;;;;;;;;;;;;;5115395;27;19926;-72
2023/09/03 10:37:40;;;;;;;;;;;;;;;;;;5116001;27;20010;-72
2023/09/03 10:40:06;;;;;;;;;;;;;;;;;;5115872;27;20002;-75
2023/09/03 10:42:32;;;;;;;;;;;;;;;;;;5115282;27;20631;-72
2023/09/03 10:44:58;;;;;;;;;;;;;;;;;;5115545;27;20371;-72
2023/09/03 10:47:24;;;;;;;;;;;;;;;;;;5115436;27;19923;-72
2023/09/03 10:49:50;;;;;;;;;;;;;;;;;;5115164;27;19974;-72
2023/09/03 10:52:16;;;;;;;;;;;;;;;;;;5098227;27;19923;-72
2023/09/03 10:54:42;;;;;;;;;;;;;;;;;;5115486;27;19923;-73
2023/09/03 10:57:08;;;;;;;;;;;;;;;;;;5115498;27;20019;-75
2023/09/03 10:59:34;;;;;;;;;;;;;;;;;;5114508;27;19919;-72
2023/09/03 11:02:01;;;;;;;;;;;;;;;;;;5115840;27;20356;-72
2023/09/03 11:04:27;;;;;;;;;;;;;;;;;;5114731;27;20403;-73
2023/09/03 11:06:52;;;;;;;;;;;;;;;;;;5133739;27;19920;-72
2023/09/03 11:09:18;;;;;;;;;;;;;;;;;;5097915;27;19923;-72
2023/09/03 11:11:44;;;;;;;;;;;;;;;;;;5115406;28;20306;-73
2023/09/03 11:14:11;;;;;;;;;;;;;;;;;;5114173;27;19919;-75
2023/09/03 11:16:37;;;;;;;;;;;;;;;;;;5098735;27;19927;-73
2023/09/03 11:19:04;;;;;;;;;;;;;;;;;;5115058;27;19926;-73
2023/09/03 11:21:30;;;;;;;;;;;;;;;;;;5114917;28;19955;-73
2023/09/03 11:23:56;;;;;;;;;;;;;;;;;;5115232;27;20039;-73
2023/09/03 11:26:22;;;;;;;;;;;;;;;;;;5093731;28;19927;-74
2023/09/03 11:28:48;;;;;;;;;;;;;;;;;;5110803;28;19920;-73
2023/09/03 11:31:14;;;;;;;;;;;;;;;;;;5111542;28;19920;-74
2023/09/03 11:33:40;;;;;;;;;;;;;;;;;;5094163;28;20006;-73
2023/09/03 11:36:06;;;;;;;;;;;;;;;;;;5094945;28;20018;-74
2023/09/03 11:38:33;;;;;;;;;;;;;;;;;;5111201;28;19920;-74
2023/09/03 11:40:59;;;;;;;;;;;;;;;;;;5111962;28;19920;-74
2023/09/03 11:43:25;;;;;;;;;;;;;;;;;;5093117;28;19919;-74
2023/09/03 11:45:51;;;;;;;;;;;;;;;;;;5112906;28;19920;-74
2023/09/03 11:48:17;;;;;;;;;;;;;;;;;;5110818;28;19973;-74
2023/09/03 11:50:43;;;;;;;;;;;;;;;;;;5111557;28;19924;-74
2023/09/03 11:53:10;;;;;;;;;;;;;;;;;;5094537;28;19926;-74
2023/09/03 11:55:36;;;;;;;;;;;;;;;;;;5111300;28;19923;-74
2023/09/03 11:58:02;;;;;;;;;;;;;;;;;;5110718;28;19920;-74
2023/09/03 12:00:28;;;;;;;;;;;;;;;;;;5113123;28;20287;-74
2023/09/03 12:02:54;;;;;;;;;;;;;;;;;;5115778;28;19919;-74
2023/09/03 12:05:20;;;;;;;;;;;;;;;;;;5097784;28;19919;-74
2023/09/03 12:07:46;;;;;;;;;;;;;;;;;;5115586;28;20372;-74
2023/09/03 12:10:12;;;;;;;;;;;;;;;;;;5115332;28;19961;-74
2023/09/03 12:12:38;;;;;;;;;;;;;;;;;;5113973;28;20001;-74
2023/09/03 12:15:04;;;;;;;;;;;;;;;;;;5115094;28;19927;-74
2023/09/03 12:17:30;;;;;;;;;;;;;;;;;;5115034;28;19963;-74
2023/09/03 12:19:58;;;;;;;;;;;;;;;;;;5115034;28;19924;-74
2023/09/03 12:22:24;;;;;;;;;;;;;;;;;;5114701;28;20068;-74
2023/09/03 12:24:49;;;;;;;;;;;;;;;;;;5098309;28;19996;-74
2023/09/03 12:27:15;;;;;;;;;;;;;;;;;;5113869;28;19976;-78
2023/09/03 12:29:41;;;;;;;;;;;;;;;;;;5114003;28;19920;-75
2023/09/03 12:32:07;;;;;;;;;;;;;;;;;;5098251;28;19926;-75
2023/09/03 12:34:34;;;;;;;;;;;;;;;;;;5114188;28;19919;-74
2023/09/03 12:37:00;;;;;;;;;;;;;;;;;;5115061;28;19926;-75
2023/09/03 12:39:26;;;;;;;;;;;;;;;;;;5114397;28;20065;-74
2023/09/03 12:41:52;;;;;;;;;;;;;;;;;;5114854;28;19926;-76
2023/09/03 12:44:18;;;;;;;;;;;;;;;;;;5113628;28;19927;-77
2023/09/03 12:46:43;;;;;;;;;;;;;;;;;;5114969;28;19920;-75
2023/09/03 12:49:09;;;;;;;;;;;;;;;;;;5113991;28;19926;-75
2023/09/03 12:51:39;;;;;;;;;;;;;;;;;;5114245;28;19927;-75
2023/09/03 12:54:05;;;;;;;;;;;;;;;;;;5114383;28;20280;-75
2023/09/03 12:56:31;;;;;;;;;;;;;;;;;;5114163;28;19968;-75
2023/09/03 12:59:04;;;;;;;;;;;;;;;;;;5113632;28;19925;-75
2023/09/03 13:01:30;;;;;;;;;;;;;;;;;;5114308;28;19919;-75
2023/09/03 13:03:56;;;;;;;;;;;;;;;;;;5115041;28;20269;-74
2023/09/03 13:06:22;;;;;;;;;;;;;;;;;;5097161;28;20357;-74
2023/09/03 13:08:48;;;;;;;;;;;;;;;;;;5114266;28;20385;-74
2023/09/03 13:11:14;;;;;;;;;;;;;;;;;;5113340;28;19919;-75
2023/09/03 13:13:40;;;;;;;;;;;;;;;;;;5095714;28;19915;-75
2023/09/03 13:16:06;;;;;;;;;;;;;;;;;;5097452;28;19923;-74
2023/09/03 13:18:32;;;;;;;;;;;;;;;;;;5113104;28;20284;-75
2023/09/03 13:20:59;;;;;;;;;;;;;;;;;;5114059;28;19962;-75
2023/09/03 13:23:25;;;;;;;;;;;;;;;;;;5113494;28;20600;-75
2023/09/03 13:25:51;;;;;;;;;;;;;;;;;;5097023;28;19962;-75
2023/09/03 13:28:17;;;;;;;;;;;;;;;;;;5095946;28;20234;-75
2023/09/03 13:30:43;;;;;;;;;;;;;;;;;;5113760;28;19925;-75
2023/09/03 13:33:09;;;;;;;;;;;;;;;;;;5113558;28;19926;-75
2023/09/03 13:35:36;;;;;;;;;;;;;;;;;;5113581;28;19923;-75
2023/09/03 13:38:03;;;;;;;;;;;;;;;;;;5096785;28;19949;-75
2023/09/03 13:40:29;;;;;;;;;;;;;;;;;;5112968;28;20388;-75
2023/09/03 13:42:54;;;;;;;;;;;;;;;;;;5096241;28;19966;-74
2023/09/03 13:45:22;;;;;;;;;;;;;;;;;;5113255;28;20406;-75
2023/09/03 13:47:48;;;;;;;;;;;;;;;;;;5111988;28;20424;-75
2023/09/03 13:50:14;;;;;;;;;;;;;;;;;;5111860;28;19965;-75
2023/09/03 13:52:40;;;;;;;;;;;;;;;;;;5111678;28;19920;-74
2023/09/03 13:55:06;;;;;;;;;;;;;;;;;;5124835;27;19926;-75
2023/09/03 13:57:33;;;;;;;;;;;;;;;;;;5131852;27;20351;-74
2023/09/03 13:59:58;;;;;;;;;;;;;;;;;;5115906;27;20021;-74
2023/09/03 14:02:28;;;;;;;;;;;;;;;;;;5116702;27;20010;-77
2023/09/03 14:04:54;;;;;;;;;;;;;;;;;;5133430;27;19988;-74
2023/09/03 14:07:20;;;;;;;;;;;;;;;;;;5133848;27;20388;-74
2023/09/03 14:09:46;;;;;;;;;;;;;;;;;;5133251;27;20692;-74
2023/09/03 14:12:12;;;;;;;;;;;;;;;;;;5116004;27;20254;-75
2023/09/03 14:14:38;;;;;;;;;;;;;;;;;;5132619;27;19926;-74
2023/09/03 14:17:04;;;;;;;;;;;;;;;;;;5133844;27;20498;-74
2023/09/03 14:19:30;;;;;;;;;;;;;;;;;;5132554;27;20289;-74
2023/09/03 14:21:56;;;;;;;;;;;;;;;;;;5116431;27;19974;-73
2023/09/03 14:24:22;;;;;;;;;;;;;;;;;;5115969;27;20343;-75
2023/09/03 14:26:48;;;;;;;;;;;;;;;;;;5132279;27;20075;-73
2023/09/03 14:29:16;;;;;;;;;;;;;;;;;;5132383;27;19920;-74
2023/09/03 14:31:50;;;;;;;;;;;;;;;;;;5133019;27;20272;-74
2023/09/03 14:34:16;;;;;;;;;;;;;;;;;;5132952;27;19923;-74
2023/09/03 14:36:42;;;;;;;;;;;;;;;;;;5132766;27;19961;-73
2023/09/03 14:39:08;;;;;;;;;;;;;;;;;;5133075;27;19920;-74
2023/09/03 14:41:34;;;;;;;;;;;;;;;;;;5132351;27;19972;-74
2023/09/03 14:44:01;;;;;;;;;;;;;;;;;;5132166;27;19970;-74
2023/09/03 14:46:27;;;;;;;;;;;;;;;;;;5133102;27;19920;-76
2023/09/03 14:48:53;;;;;;;;;;;;;;;;;;5115288;27;20371;-75
2023/09/03 14:51:19;;;;;;;;;;;;;;;;;;5133065;27;19923;-73
2023/09/03 14:53:45;;;;;;;;;;;;;;;;;;5132320;27;19919;-74
2023/09/03 14:56:12;;;;;;;;;;;;;;;;;;5115734;27;19919;-74
2023/09/03 14:58:38;;;;;;;;;;;;;;;;;;5131085;27;20388;-74
2023/09/03 15:01:04;;;;;;;;;;;;;;;;;;5115246;27;19919;-74
2023/09/03 15:03:30;;;;;;;;;;;;;;;;;;5132203;27;19974;-76
2023/09/03 15:05:56;;;;;;;;;;;;;;;;;;5132706;27;19919;-74
2023/09/03 15:08:21;;;;;;;;;;;;;;;;;;5132539;27;19975;-73
2023/09/03 15:10:47;;;;;;;;;;;;;;;;;;5132308;27;20307;-73
2023/09/03 15:13:13;;;;;;;;;;;;;;;;;;5131477;27;19919;-73
2023/09/03 15:15:39;;;;;;;;;;;;;;;;;;5132257;27;19919;-73
2023/09/03 15:18:08;;;;;;;;;;;;;;;;;;5132312;27;19919;-74
2023/09/03 15:20:34;;;;;;;;;;;;;;;;;;5132049;27;19963;-74
2023/09/03 15:23:00;;;;;;;;;;;;;;;;;;5115202;27;20372;-74
2023/09/03 15:25:26;;;;;;;;;;;;;;;;;;5132754;27;20284;-73
2023/09/03 15:27:52;;;;;;;;;;;;;;;;;;5130948;27;20002;-73
2023/09/03 15:30:21;;;;;;;;;;;;;;;;;;5131988;27;19919;-74
2023/09/03 15:32:47;;;;;;;;;;;;;;;;;;5131996;28;19930;-73
2023/09/03 15:35:13;;;;;;;;;;;;;;;;;;5131322;27;19920;-74
2023/09/03 15:37:39;;;;;;;;;;;;;;;;;;5131820;28;19919;-74
2023/09/03 15:40:05;;;;;;;;;;;;;;;;;;5132176;28;20117;-73
2023/09/03 15:42:31;;;;;;;;;;;;;;;;;;5114566;28;19923;-73
2023/09/03 15:44:56;;;;;;;;;;;;;;;;;;5131450;28;19930;-74
2023/09/03 15:47:22;;;;;;;;;;;;;;;;;;5132432;28;20006;-73
2023/09/03 15:49:48;;;;;;;;;;;;;;;;;;5131282;28;19919;-73
2023/09/03 15:52:14;;;;;;;;;;;;;;;;;;5115126;28;20370;-73
2023/09/03 15:54:41;;;;;;;;;;;;;;;;;;5131428;28;19980;-73
2023/09/03 15:57:08;;;;;;;;;;;;;;;;;;5115095;28;19923;-74
2023/09/03 15:59:34;;;;;;;;;;;;;;;;;;5131012;28;19919;-73
2023/09/03 16:02:01;;;;;;;;;;;;;;;;;;5132005;28;19942;-73
2023/09/03 16:04:27;;;;;;;;;;;;;;;;;;5131696;28;20398;-73
2023/09/03 16:06:52;;;;;;;;;;;;;;;;;;5131598;28;19919;-73
2023/09/03 16:09:18;;;;;;;;;;;;;;;;;;5131994;28;20357;-73
2023/09/03 16:11:44;;;;;;;;;;;;;;;;;;5131484;28;20037;-73
2023/09/03 16:14:10;;;;;;;;;;;;;;;;;;5113945;28;19919;-73
2023/09/03 16:16:36;;;;;;;;;;;;;;;;;;5131667;28;19923;-76
2023/09/03 16:19:02;;;;;;;;;;;;;;;;;;5131248;28;19968;-73
2023/09/03 16:21:28;;;;;;;;;;;;;;;;;;5114876;28;19927;-73
2023/09/03 16:23:54;;;;;;;;;;;;;;;;;;5131345;28;19920;-73
2023/09/03 16:26:20;;;;;;;;;;;;;;;;;;5131669;28;20372;-73
2023/09/03 16:28:46;;;;;;;;;;;;;;;;;;5130140;28;19924;-73
2023/09/03 16:31:12;;;;;;;;;;;;;;;;;;5132030;28;19919;-73
2023/09/03 16:33:38;;;;;;;;;;;;;;;;;;5113712;28;19926;-76
2023/09/03 16:36:04;;;;;;;;;;;;;;;;;;5131924;28;20352;-73
2023/09/03 16:38:30;;;;;;;;;;;;;;;;;;5131684;28;19964;-73